createdAt,value
2018-02-11T00:02:08.381Z,28.17
2018-02-11T00:04:36.027Z,29.70
2018-02-11T00:07:03.752Z,31.00
2018-02-11T00:09:32.238Z,28.73
2018-02-11T00:11:59.872Z,29.93
2018-02-11T00:14:27.578Z,28.70
2018-02-11T00:16:55.224Z,29.40
2018-02-11T00:19:22.876Z,31.50
2018-02-11T00:21:50.568Z,30.47
2018-02-11T00:24:18.217Z,30.07
2018-02-11T00:26:45.866Z,30.63
2018-02-11T00:29:14.040Z,28.77
2018-02-11T00:31:42.524Z,29.80
2018-02-11T00:34:10.168Z,29.07
2018-02-11T00:36:37.881Z,29.73
2018-02-11T00:39:05.522Z,28.70
2018-02-11T00:41:33.164Z,31.37
2018-02-11T00:44:00.872Z,29.70
2018-02-11T00:46:28.516Z,29.80
2018-02-11T00:48:57.670Z,28.80
2018-02-11T00:54:07.826Z,37.75
2018-02-11T00:56:35.520Z,32.93
2018-02-11T00:59:03.217Z,29.80
2018-02-11T01:01:30.868Z,29.10
2018-02-11T01:03:58.571Z,28.53
2018-02-11T01:06:26.220Z,30.13
2018-02-11T01:08:54.720Z,29.17
2018-02-11T01:11:22.462Z,29.70
2018-02-11T01:13:50.101Z,29.43
2018-02-11T01:16:17.732Z,30.63
2018-02-11T01:18:45.441Z,29.87
2018-02-11T01:21:13.148Z,29.27
2018-02-11T01:23:40.788Z,29.57
2018-02-11T01:26:08.498Z,28.70
2018-02-11T01:28:36.146Z,30.87
2018-02-11T01:31:04.655Z,29.50
2018-02-11T01:33:32.353Z,30.73
2018-02-11T01:36:00.015Z,30.77
2018-02-11T01:38:28.635Z,29.57
2018-02-11T01:40:56.359Z,31.90
2018-02-11T01:43:24.036Z,31.90
2018-02-11T01:45:51.685Z,30.43
2018-02-11T01:48:19.400Z,30.90
2018-02-11T01:50:47.042Z,30.43
2018-02-11T01:53:14.741Z,30.73
2018-02-11T01:55:42.404Z,30.03
2018-02-11T01:58:10.060Z,32.27
2018-02-11T02:00:38.596Z,31.87
2018-02-11T02:03:06.305Z,28.80
2018-02-11T02:05:33.981Z,28.20
2018-02-11T02:08:01.965Z,31.37
2018-02-11T02:13:10.337Z,39.03
2018-02-11T02:15:38.028Z,32.30
2018-02-11T02:18:05.677Z,31.50
2018-02-11T02:20:34.271Z,28.83
2018-02-11T02:23:02.279Z,30.30
2018-02-11T02:25:30.864Z,29.57
2018-02-11T02:27:58.515Z,28.63
2018-02-11T02:30:27.128Z,28.50
2018-02-11T02:32:54.767Z,27.17
2018-02-11T02:35:23.024Z,27.30
2018-02-11T02:37:50.708Z,26.60
2018-02-11T02:40:18.348Z,27.47
2018-02-11T02:42:46.870Z,26.73
2018-02-11T02:45:15.389Z,26.40
2018-02-11T02:47:43.042Z,29.83
2018-02-11T02:50:10.672Z,28.30
2018-02-11T02:52:38.376Z,27.07
2018-02-11T02:55:06.926Z,28.80
2018-02-11T02:57:35.314Z,26.97
2018-02-11T03:00:03.054Z,28.37
2018-02-11T03:02:30.693Z,27.67
2018-02-11T03:04:58.435Z,27.50
2018-02-11T03:07:26.139Z,21.53
2018-02-11T03:09:53.774Z,21.47
2018-02-11T03:12:23.360Z,20.47
2018-02-11T03:14:51.421Z,18.83
2018-02-11T03:17:20.016Z,16.90
2018-02-11T03:19:47.674Z,16.40
2018-02-11T03:22:16.333Z,15.67
2018-02-11T03:24:44.712Z,15.23
2018-02-11T03:27:12.373Z,14.33
2018-02-11T03:29:40.086Z,14.60
2018-02-11T03:32:07.724Z,15.00
2018-02-11T03:34:35.380Z,12.33
2018-02-11T03:39:42.185Z,16.62
2018-02-11T03:42:09.905Z,13.47
2018-02-11T03:44:37.543Z,12.23
2018-02-11T03:47:05.184Z,11.60
2018-02-11T03:49:32.879Z,10.87
2018-02-11T03:52:00.521Z,10.90
2018-02-11T03:54:28.164Z,12.80
2018-02-11T03:56:55.854Z,13.73
2018-02-11T03:59:23.548Z,15.27
2018-02-11T04:01:51.129Z,13.07
2018-02-11T04:04:18.837Z,15.07
2018-02-11T04:06:46.485Z,14.07
2018-02-11T04:09:14.858Z,15.53
2018-02-11T04:11:42.556Z,16.10
2018-02-11T04:14:10.206Z,13.77
2018-02-11T04:16:37.840Z,15.60
2018-02-11T04:19:05.588Z,14.80
2018-02-11T04:21:33.214Z,15.17
2018-02-11T04:24:00.856Z,15.70
2018-02-11T04:26:29.629Z,16.50
2018-02-11T04:28:57.272Z,15.37
2018-02-11T04:31:24.919Z,16.53
2018-02-11T04:33:53.448Z,15.03
2018-02-11T04:36:21.089Z,15.83
2018-02-11T04:38:48.744Z,16.73
2018-02-11T04:41:16.444Z,14.47
2018-02-11T04:43:44.224Z,13.77
2018-02-11T04:46:12.838Z,12.60
2018-02-11T04:48:41.400Z,14.53
2018-02-11T04:51:09.060Z,12.47
2018-02-11T04:53:37.672Z,14.53
2018-02-11T04:56:05.437Z,11.50
2018-02-11T04:58:33.073Z,11.10
2018-02-11T05:03:39.913Z,10.98
2018-02-11T05:06:07.551Z,8.67
2018-02-11T05:08:36.153Z,10.30
2018-02-11T05:11:04.340Z,10.37
2018-02-11T05:13:31.977Z,11.00
2018-02-11T05:15:59.619Z,10.40
2018-02-11T05:18:27.342Z,10.67
2018-02-11T05:20:54.992Z,12.03
2018-02-11T05:25:50.358Z,11.70
2018-02-11T05:28:17.994Z,11.23
2018-02-11T05:30:45.649Z,9.73
2018-02-11T05:33:14.185Z,8.63
2018-02-11T05:35:42.558Z,9.27
2018-02-11T05:38:10.201Z,9.83
2018-02-11T05:40:37.940Z,9.80
2018-02-11T05:43:06.035Z,10.40
2018-02-11T05:45:33.687Z,9.50
2018-02-11T05:48:01.407Z,10.33
2018-02-11T05:50:29.046Z,10.83
2018-02-11T05:52:56.690Z,11.50
2018-02-11T05:55:24.423Z,13.30
2018-02-11T05:57:52.108Z,14.83
2018-02-11T06:00:20.709Z,16.53
2018-02-11T06:02:50.596Z,16.03
2018-02-11T06:05:18.201Z,14.80
2018-02-11T06:07:46.756Z,12.30
2018-02-11T06:10:14.448Z,12.57
2018-02-11T06:12:42.109Z,11.73
2018-02-11T06:15:09.746Z,11.60
2018-02-11T06:17:38.322Z,12.50
2018-02-11T06:20:05.990Z,12.27
2018-02-11T06:22:34.457Z,12.70
2018-02-11T06:27:41.267Z,18.62
2018-02-11T06:30:08.973Z,16.37
2018-02-11T06:32:36.637Z,16.00
2018-02-11T06:35:04.296Z,14.93
2018-02-11T06:37:32.009Z,13.37
2018-02-11T06:40:01.898Z,13.10
2018-02-11T06:42:29.541Z,13.47
2018-02-11T06:44:57.234Z,13.83
2018-02-11T06:47:25.699Z,14.33
2018-02-11T06:49:53.331Z,14.60
2018-02-11T06:52:21.751Z,16.63
2018-02-11T06:54:49.394Z,14.40
2018-02-11T06:57:17.165Z,13.13
2018-02-11T06:59:45.679Z,12.83
2018-02-11T07:02:13.318Z,11.43
2018-02-11T07:04:41.049Z,12.50
2018-02-11T07:07:08.669Z,11.77
2018-02-11T07:09:36.334Z,14.93
2018-02-11T07:12:04.478Z,16.93
2018-02-11T07:14:33.558Z,15.47
2018-02-11T07:17:01.204Z,13.93
2018-02-11T07:19:28.858Z,13.73
2018-02-11T07:21:56.606Z,14.27
2018-02-11T07:24:24.424Z,13.80
2018-02-11T07:26:52.079Z,14.20
2018-02-11T07:29:19.780Z,14.30
2018-02-11T07:31:47.433Z,14.73
2018-02-11T07:34:15.087Z,13.37
2018-02-11T07:36:43.519Z,14.20
2018-02-11T07:39:11.159Z,13.93
2018-02-11T07:41:38.805Z,13.93
2018-02-11T07:44:06.509Z,13.90
2018-02-11T07:46:34.989Z,13.40
2018-02-11T07:49:02.642Z,13.83
2018-02-11T07:54:09.493Z,19.08
2018-02-11T07:56:37.197Z,15.10
2018-02-11T07:59:04.850Z,11.23
2018-02-11T08:01:32.522Z,12.70
2018-02-11T08:04:00.223Z,12.33
2018-02-11T08:06:27.885Z,13.40
2018-02-11T08:08:55.529Z,11.77
2018-02-11T08:11:23.255Z,13.53
2018-02-11T08:13:50.949Z,12.50
2018-02-11T08:16:18.566Z,12.27
2018-02-11T08:18:46.323Z,10.43
2018-02-11T08:21:13.916Z,9.67
2018-02-11T08:23:42.531Z,11.67
2018-02-11T08:26:10.217Z,11.37
2018-02-11T08:28:37.858Z,10.00
2018-02-11T08:31:05.498Z,12.57
2018-02-11T08:33:33.215Z,11.03
2018-02-11T08:36:00.862Z,17.10
2018-02-11T08:38:28.511Z,15.57
2018-02-11T08:40:56.216Z,13.20
2018-02-11T08:43:24.424Z,15.50
2018-02-11T08:45:52.061Z,16.17
2018-02-11T08:48:19.779Z,15.60
2018-02-11T08:50:47.802Z,14.23
2018-02-11T08:53:15.442Z,12.27
2018-02-11T08:58:26.801Z,13.82
2018-02-11T09:00:58.177Z,12.50
2018-02-11T09:03:26.916Z,11.83
2018-02-11T09:05:55.059Z,12.93
2018-02-11T09:08:22.742Z,11.37
2018-02-11T09:10:50.396Z,11.37
2018-02-11T09:13:18.454Z,10.83
2018-02-11T09:15:46.786Z,10.23
2018-02-11T09:18:14.296Z,9.63
2018-02-11T09:20:42.458Z,9.83
2018-02-11T09:23:10.134Z,9.50
2018-02-11T09:25:37.765Z,8.50
2018-02-11T09:28:05.481Z,8.10
2018-02-11T09:30:33.125Z,5.80
2018-02-11T09:33:00.764Z,6.67
2018-02-11T09:35:28.538Z,6.60
2018-02-11T09:37:56.170Z,7.80
2018-02-11T09:40:23.815Z,7.53
2018-02-11T09:42:51.521Z,8.23
2018-02-11T09:45:19.137Z,6.13
2018-02-11T09:47:46.785Z,8.27
2018-02-11T09:50:15.318Z,5.13
2018-02-11T09:52:42.949Z,8.23
2018-02-11T09:55:10.594Z,6.53
2018-02-11T09:57:38.285Z,6.63
2018-02-11T10:00:05.936Z,7.40
2018-02-11T10:02:33.562Z,6.77
2018-02-11T10:05:01.283Z,7.03
2018-02-11T10:07:28.934Z,6.90
2018-02-11T10:09:56.612Z,6.53
2018-02-11T10:12:24.320Z,6.27
2018-02-11T10:14:51.966Z,6.47
2018-02-11T10:17:19.654Z,7.37
2018-02-11T10:19:47.341Z,7.53
2018-02-11T10:24:54.148Z,8.75
2018-02-11T10:27:21.808Z,7.87
2018-02-11T10:29:49.422Z,7.83
2018-02-11T10:32:17.124Z,7.30
2018-02-11T10:34:44.784Z,6.90
2018-02-11T10:37:12.422Z,6.87
2018-02-11T10:39:40.128Z,7.10
2018-02-11T10:42:07.769Z,6.23
2018-02-11T10:44:35.410Z,6.20
2018-02-11T10:47:03.098Z,6.93
2018-02-11T10:49:30.745Z,6.13
2018-02-11T10:51:58.381Z,6.83
2018-02-11T10:54:27.092Z,6.13
2018-02-11T10:56:54.729Z,5.37
2018-02-11T10:59:22.378Z,5.30
2018-02-11T11:01:50.065Z,5.23
2018-02-11T11:04:17.695Z,5.47
2018-02-11T11:06:45.375Z,6.53
2018-02-11T11:09:13.058Z,6.27
2018-02-11T11:11:40.685Z,6.40
2018-02-11T11:14:08.352Z,5.80
2018-02-11T11:16:36.870Z,5.17
2018-02-11T11:19:04.525Z,5.47
2018-02-11T11:21:32.155Z,6.70
2018-02-11T11:24:01.693Z,6.47
2018-02-11T11:26:29.361Z,6.23
2018-02-11T11:28:57.836Z,6.97
2018-02-11T11:31:25.595Z,7.17
2018-02-11T11:33:53.178Z,7.50
2018-02-11T11:36:21.781Z,7.13
2018-02-11T11:38:49.501Z,5.47
2018-02-11T11:43:58.715Z,8.73
2018-02-11T11:46:26.348Z,7.20
2018-02-11T11:48:54.398Z,6.50
2018-02-11T11:51:22.030Z,6.47
2018-02-11T11:53:49.669Z,6.27
2018-02-11T11:56:17.308Z,5.43
2018-02-11T11:58:45.039Z,6.33
2018-02-11T12:01:12.673Z,6.77
2018-02-11T12:03:40.304Z,6.13
2018-02-11T12:06:08.012Z,6.63
2018-02-11T12:08:35.660Z,7.03
2018-02-11T12:11:03.289Z,6.60
2018-02-11T12:13:31.005Z,6.13
2018-02-11T12:15:58.652Z,5.90
2018-02-11T12:18:26.732Z,6.70
2018-02-11T12:20:54.371Z,6.27
2018-02-11T12:23:22.009Z,6.60
2018-02-11T12:25:49.665Z,5.93
2018-02-11T12:28:17.381Z,5.33
2018-02-11T12:30:45.037Z,5.97
2018-02-11T12:33:12.668Z,6.07
2018-02-11T12:35:42.346Z,6.13
2018-02-11T12:38:10.064Z,6.20
2018-02-11T12:40:37.609Z,6.03
2018-02-11T12:43:05.304Z,5.90
2018-02-11T12:45:33.888Z,4.83
2018-02-11T12:48:01.526Z,5.47
2018-02-11T12:50:30.475Z,5.30
2018-02-11T12:52:58.112Z,6.30
2018-02-11T12:55:25.739Z,5.67
2018-02-11T12:57:53.644Z,6.20
2018-02-11T13:00:24.696Z,5.87
2018-02-11T13:02:52.328Z,4.43
2018-02-11T13:08:01.142Z,6.82
2018-02-11T13:10:28.905Z,6.30
2018-02-11T13:12:56.474Z,5.43
2018-02-11T13:15:25.103Z,5.97
2018-02-11T13:17:52.848Z,5.60
2018-02-11T13:20:20.558Z,5.63
2018-02-11T13:22:48.194Z,6.63
2018-02-11T13:25:16.013Z,5.63
2018-02-11T13:27:43.626Z,5.47
2018-02-11T13:30:11.259Z,5.17
2018-02-11T13:32:38.957Z,5.70
2018-02-11T13:35:06.616Z,4.87
2018-02-11T13:37:34.250Z,4.70
2018-02-11T13:40:01.950Z,4.87
2018-02-11T13:42:29.573Z,3.93
2018-02-11T13:44:57.217Z,4.10
2018-02-11T13:47:24.922Z,4.17
2018-02-11T13:49:52.557Z,5.53
2018-02-11T13:52:20.200Z,4.90
2018-02-11T13:54:47.876Z,5.43
2018-02-11T13:57:15.523Z,4.60
2018-02-11T13:59:44.429Z,4.90
2018-02-11T14:02:12.138Z,4.40
2018-02-11T14:04:39.779Z,5.60
2018-02-11T14:07:07.447Z,5.13
2018-02-11T14:09:35.105Z,4.40
2018-02-11T14:12:02.758Z,5.53
2018-02-11T14:14:30.380Z,5.23
2018-02-11T14:16:59.041Z,5.37
2018-02-11T14:19:26.686Z,6.07
2018-02-11T14:24:33.476Z,7.35
2018-02-11T14:27:01.221Z,6.30
2018-02-11T14:29:28.846Z,6.70
2018-02-11T14:31:57.367Z,6.90
2018-02-11T14:34:25.298Z,7.00
2018-02-11T14:36:52.672Z,6.70
2018-02-11T14:39:20.380Z,6.30
2018-02-11T14:41:48.012Z,6.57
2018-02-11T14:44:15.657Z,6.80
2018-02-11T14:46:43.393Z,6.27
2018-02-11T14:49:11.038Z,6.43
2018-02-11T14:51:38.696Z,6.30
2018-02-11T14:54:07.434Z,7.00
2018-02-11T14:56:35.061Z,6.87
2018-02-11T14:59:03.268Z,5.93
2018-02-11T15:01:30.988Z,5.90
2018-02-11T15:03:58.633Z,6.33
2018-02-11T15:06:27.048Z,5.37
2018-02-11T15:08:54.748Z,6.10
2018-02-11T15:11:22.385Z,5.63
2018-02-11T15:13:50.023Z,6.00
2018-02-11T15:16:17.738Z,6.43
2018-02-11T15:18:45.383Z,5.60
2018-02-11T15:21:13.018Z,5.87
2018-02-11T15:23:40.770Z,5.67
2018-02-11T15:26:08.409Z,5.90
2018-02-11T15:28:36.058Z,5.63
2018-02-11T15:31:03.754Z,6.33
2018-02-11T15:33:31.436Z,6.23
2018-02-11T15:35:59.060Z,5.70
2018-02-11T15:38:26.774Z,5.37
2018-02-11T15:40:54.404Z,5.40
2018-02-11T15:43:22.055Z,5.10
2018-02-11T15:45:49.757Z,4.40
2018-02-11T15:50:57.588Z,6.15
2018-02-11T15:53:26.380Z,4.97
2018-02-11T15:55:54.550Z,5.37
2018-02-11T15:58:22.242Z,5.27
2018-02-11T16:00:49.872Z,4.70
2018-02-11T16:03:17.514Z,5.37
2018-02-11T16:08:24.904Z,5.75
2018-02-11T16:10:52.609Z,5.50
2018-02-11T16:13:20.239Z,5.40
2018-02-11T16:15:48.530Z,5.10
2018-02-11T16:18:16.202Z,5.87
2018-02-11T16:20:43.881Z,6.47
2018-02-11T16:23:11.519Z,6.10
2018-02-11T16:25:39.209Z,6.80
2018-02-11T16:28:07.308Z,6.73
2018-02-11T16:30:35.446Z,6.50
2018-02-11T16:33:02.985Z,5.77
2018-02-11T16:35:30.632Z,6.90
2018-02-11T16:37:59.002Z,6.47
2018-02-11T16:40:26.666Z,6.37
2018-02-11T16:42:54.349Z,5.97
2018-02-11T16:45:22.042Z,6.33
2018-02-11T16:47:49.764Z,5.63
2018-02-11T16:50:18.490Z,5.93
2018-02-11T16:52:46.102Z,6.77
2018-02-11T16:55:13.819Z,6.60
2018-02-11T16:57:42.754Z,6.20
2018-02-11T17:00:10.396Z,7.33
2018-02-11T17:02:38.865Z,8.80
2018-02-11T17:05:06.513Z,12.90
2018-02-11T17:07:34.149Z,15.13
2018-02-11T17:10:01.883Z,10.03
2018-02-11T17:12:29.512Z,9.30
2018-02-11T17:14:57.146Z,9.20
2018-02-11T17:17:24.903Z,10.77
2018-02-11T17:19:52.533Z,10.13
2018-02-11T17:22:20.230Z,18.60
2018-02-11T17:27:15.563Z,10.33
2018-02-11T17:32:22.384Z,9.98
2018-02-11T17:34:50.018Z,10.40
2018-02-11T17:37:19.789Z,8.53
2018-02-11T17:39:47.516Z,9.70
2018-02-11T17:42:15.627Z,10.03
2018-02-11T17:44:43.276Z,9.97
2018-02-11T17:47:10.993Z,9.73
2018-02-11T17:49:38.638Z,9.80
2018-02-11T17:52:07.096Z,10.33
2018-02-11T17:54:34.798Z,11.00
2018-02-11T17:57:02.434Z,11.33
2018-02-11T17:59:30.082Z,11.00
2018-02-11T18:01:57.778Z,11.37
2018-02-11T18:04:25.437Z,11.17
2018-02-11T18:06:54.552Z,11.27
2018-02-11T18:09:22.909Z,11.87
2018-02-11T18:11:50.548Z,11.37
2018-02-11T18:14:18.186Z,11.33
2018-02-11T18:16:45.933Z,11.90
2018-02-11T18:19:14.068Z,12.53
2018-02-11T18:21:41.689Z,11.50
2018-02-11T18:24:09.408Z,10.73
2018-02-11T18:26:37.058Z,10.73
2018-02-11T18:29:04.694Z,10.43
2018-02-11T18:31:32.390Z,10.00
2018-02-11T18:34:00.046Z,9.80
2018-02-11T18:36:27.763Z,8.47
2018-02-11T18:41:34.489Z,11.57
2018-02-11T18:44:02.193Z,10.13
2018-02-11T18:46:29.832Z,10.43
2018-02-11T18:48:57.473Z,9.73
2018-02-11T18:51:25.165Z,10.63
2018-02-11T18:53:52.816Z,9.47
2018-02-11T18:56:20.464Z,10.90
2018-02-11T18:58:48.165Z,10.27
2018-02-11T19:01:15.818Z,10.80
2018-02-11T19:03:43.457Z,16.83
2018-02-11T19:06:11.174Z,18.40
2018-02-11T19:08:38.868Z,13.73
2018-02-11T19:11:06.506Z,10.77
2018-02-11T19:13:34.162Z,11.80
2018-02-11T19:16:01.801Z,13.87
2018-02-11T19:18:29.449Z,26.13
2018-02-11T19:20:57.161Z,20.20
2018-02-11T19:23:24.787Z,23.30
2018-02-11T19:25:54.844Z,46.00
2018-02-11T19:28:22.560Z,18.70
2018-02-11T19:30:50.197Z,26.87
2018-02-11T19:33:17.928Z,18.63
2018-02-11T19:35:45.646Z,15.37
2018-02-11T19:38:13.290Z,18.07
2018-02-11T19:40:41.006Z,13.40
2018-02-11T19:43:08.670Z,9.70
2018-02-11T19:45:36.325Z,12.27
2018-02-11T19:48:04.055Z,10.63
2018-02-11T19:50:31.778Z,11.97
2018-02-11T19:52:59.406Z,9.80
2018-02-11T19:55:27.132Z,10.90
2018-02-11T19:57:55.005Z,9.27
2018-02-11T20:00:22.697Z,9.47
2018-02-11T20:02:50.635Z,9.27
2018-02-11T20:05:18.482Z,12.63
2018-02-11T20:10:25.386Z,14.07
2018-02-11T20:12:53.991Z,11.97
2018-02-11T20:15:21.639Z,9.57
2018-02-11T20:17:49.356Z,9.80
2018-02-11T20:20:17.152Z,8.93
2018-02-11T20:22:44.850Z,9.07
2018-02-11T20:25:12.591Z,10.43
2018-02-11T20:27:40.235Z,10.93
2018-02-11T20:30:07.885Z,10.20
2018-02-11T20:32:35.600Z,10.57
2018-02-11T20:35:03.240Z,10.23
2018-02-11T20:37:31.241Z,9.60
2018-02-11T20:40:00.328Z,12.20
2018-02-11T20:42:26.637Z,11.17
2018-02-11T20:44:54.313Z,11.87
2018-02-11T20:47:22.057Z,10.83
2018-02-11T20:49:49.711Z,9.90
2018-02-11T20:52:20.684Z,12.73
2018-02-11T20:54:48.394Z,13.47
2018-02-11T20:57:16.026Z,10.50
2018-02-11T20:59:43.665Z,10.37
2018-02-11T21:02:11.372Z,11.47
2018-02-11T21:04:39.096Z,10.63
2018-02-11T21:07:06.739Z,11.37
2018-02-11T21:09:34.444Z,11.73
2018-02-11T21:12:02.082Z,10.80
2018-02-11T21:14:29.716Z,11.33
2018-02-11T21:16:57.413Z,12.33
2018-02-11T21:19:25.098Z,13.07
2018-02-11T21:21:52.737Z,14.17
2018-02-11T21:24:20.853Z,14.33
2018-02-11T21:26:48.489Z,15.00
2018-02-11T21:29:16.144Z,15.50
2018-02-11T21:34:22.979Z,19.80
2018-02-11T21:36:50.665Z,17.77
2018-02-11T21:39:18.364Z,17.97
2018-02-11T21:41:46.024Z,17.27
2018-02-11T21:44:13.887Z,16.20
2018-02-11T21:46:42.567Z,15.73
2018-02-11T21:49:10.201Z,16.80
2018-02-11T21:51:37.924Z,18.57
2018-02-11T21:54:05.561Z,18.30
2018-02-11T21:56:33.199Z,17.57
2018-02-11T21:59:01.527Z,16.40
2018-02-11T22:01:29.165Z,16.33
2018-02-11T22:03:56.823Z,16.67
2018-02-11T22:06:24.522Z,18.73
2018-02-11T22:08:52.158Z,17.60
2018-02-11T22:11:19.808Z,17.50
2018-02-11T22:13:47.519Z,17.90
2018-02-11T22:16:15.178Z,18.33
2018-02-11T22:18:43.724Z,21.07
2018-02-11T22:21:11.429Z,19.13
2018-02-11T22:23:39.090Z,19.73
2018-02-11T22:26:06.750Z,18.63
2018-02-11T22:28:34.488Z,20.40
2018-02-11T22:31:02.122Z,20.63
2018-02-11T22:33:29.762Z,19.90
2018-02-11T22:35:57.484Z,21.03
2018-02-11T22:41:06.310Z,29.87
2018-02-11T22:43:33.955Z,21.67
2018-02-11T22:46:01.606Z,23.03
2018-02-11T22:48:29.338Z,21.53
2018-02-11T22:50:56.981Z,22.13
2018-02-11T22:53:24.645Z,22.30
2018-02-11T22:55:52.341Z,21.87
2018-02-11T22:58:19.982Z,22.93
2018-02-11T23:00:47.644Z,22.07
2018-02-11T23:03:15.367Z,23.37
2018-02-11T23:05:43.033Z,24.07
2018-02-11T23:08:10.693Z,23.43
2018-02-11T23:10:38.429Z,23.10
2018-02-11T23:13:06.820Z,23.30
2018-02-11T23:15:35.388Z,24.20
2018-02-11T23:18:03.088Z,23.40
2018-02-11T23:20:30.876Z,23.13
2018-02-11T23:22:59.848Z,21.73
2018-02-11T23:25:27.875Z,22.37
2018-02-11T23:27:55.377Z,23.43
2018-02-11T23:30:23.022Z,22.83
2018-02-11T23:32:50.722Z,22.73
2018-02-11T23:35:18.433Z,27.07
2018-02-11T23:37:52.613Z,25.80
2018-02-11T23:40:20.344Z,25.67
2018-02-11T23:42:47.986Z,24.13
2018-02-11T23:45:15.625Z,23.80
2018-02-11T23:47:43.339Z,22.13
2018-02-11T23:50:11.534Z,22.67
2018-02-11T23:52:39.223Z,22.77
2018-02-11T23:57:48.035Z,33.78
